Ship Status Report: callsign BR3037

sailwx.info

Track history (hours):
 
Tides and Currents Weather Stations Pressure Air Temp Water Temp Dewpoint Dewpoint Depression Visibility Wind Speed Wind Dir Waves Ship Positions

Oceanographic research ship ()

Last reported at 2017-Aug-14 03:30 UTC. Time now 2017-Aug-20 09:48 UTC.
Position N 22°37' E 120°14'.

Length 39 m.

Type: Other ship. MMSI: 416926000.

Date/timePositionNaut miles runAvg speedWind from/ knotsBaromVisibWave heightAir tempDewpointWater temp
2017-Aug-14 03:30N 22°37' E 120°14'4 0.1
2017-Aug-12 01:13N 22°36' E 120°10'210.0
2017-Aug-12 01:00N 22°38' E 120°12'  
2017-Aug-09 07:16N 22°37' E 120°16'310.0
2017-Aug-09 06:59N 22°37' E 120°13'6 0.1
2017-Aug-07 05:00N 22°32' E 120°14'5 8.7
2017-Aug-07 04:25N 22°36' E 120°11'3 7.3
2017-Aug-07 04:00N 22°38' E 120°14'2 0.1
2017-Aug-05 10:03N 22°37' E 120°16'0 8.2
2017-Aug-05 10:00N 22°37' E 120°16'  
Track history (hours):
 
Tides and Currents Weather Stations Pressure Air Temp Water Temp Dewpoint Dewpoint Depression Visibility Wind Speed Wind Dir Waves Ship Positions

Oceanographic research ship ()

Last reported at 2017-Aug-14 03:30 UTC. Time now 2017-Aug-20 09:48 UTC.
Position N 22°37' E 120°14'.

Length 39 m.

Type: Other ship. MMSI: 416926000.

Date/timePositionNaut miles runAvg speedWind from/ knotsBaromVisibWave heightAir tempDewpointWater temp
2017-Aug-14 03:30N 22°37' E 120°14'4 0.1
2017-Aug-12 01:13N 22°36' E 120°10'210.0
2017-Aug-12 01:00N 22°38' E 120°12'  
2017-Aug-09 07:16N 22°37' E 120°16'310.0
2017-Aug-09 06:59N 22°37' E 120°13'6 0.1
2017-Aug-07 05:00N 22°32' E 120°14'5 8.7
2017-Aug-07 04:25N 22°36' E 120°11'3 7.3
2017-Aug-07 04:00N 22°38' E 120°14'2 0.1
2017-Aug-05 10:03N 22°37' E 120°16'0 8.2
2017-Aug-05 10:00N 22°37' E 120°16'  

Dump ship's entire track history